Time;durP1;ratioP1;P1;durP2;ratioP2;P2;SDS_P1;SDS_P2;PMS_P1;PMS_P2;Temp;Humidity;BMP_temperature;BMP_pressure;BME280_temperature;BME280_humidity;BME280_pressure;Samples;Min_cycle;Max_cycle;Signal;HPM_P1;HPM_P2
2022/08/09 00:01:35;;;;;;;9.33;8.83;;;16.80;94.40;;;;;;5086799;28;20697;-75
2022/08/09 00:04:02;;;;;;;7.87;7.47;;;16.80;95.00;;;;;;5053704;28;20190;-74
2022/08/09 00:06:28;;;;;;;7.07;6.53;;;16.80;95.50;;;;;;5051682;28;20182;-74
2022/08/09 00:08:54;;;;;;;6.07;5.47;;;16.80;95.90;;;;;;5070722;28;20568;-74
2022/08/09 00:11:20;;;;;;;6.30;6.00;;;16.80;96.40;;;;;;5065425;28;20215;-74
2022/08/09 00:13:46;;;;;;;11.17;10.40;;;16.70;97.40;;;;;;5044453;28;20177;-74
2022/08/09 00:16:12;;;;;;;24.47;23.17;;;16.50;98.50;;;;;;5053325;28;20178;-74
2022/08/09 00:18:38;;;;;;;33.07;31.47;;;16.40;99.60;;;;;;5050797;28;20201;-74
2022/08/09 00:21:06;;;;;;;41.50;39.50;;;16.20;99.90;;;;;;5051973;28;20198;-74
2022/08/09 00:23:32;;;;;;;46.47;44.23;;;16.20;99.90;;;;;;5052988;28;20236;-74
2022/08/09 00:25:59;;;;;;;43.43;41.37;;;16.20;99.90;;;;;;5053601;28;20178;-74
2022/08/09 00:28:25;;;;;;;53.73;51.10;;;16.20;99.90;;;;;;5050485;28;20221;-74
2022/08/09 00:30:52;;;;;;;49.27;46.80;;;16.20;99.90;;;;;;5052669;28;20239;-74
2022/08/09 00:33:19;;;;;;;46.30;44.00;;;16.20;99.90;;;;;;5053081;28;20182;-75
2022/08/09 00:35:44;;;;;;;69.10;65.80;;;16.10;99.90;;;;;;5052201;28;20178;-75
2022/08/09 00:38:11;;;;;;;68.83;65.33;;;16.20;99.90;;;;;;5051907;28;20216;-75
2022/08/09 00:40:41;;;;;;;76.93;73.20;;;16.20;99.90;;;;;;5051633;28;20232;-75
2022/08/09 00:43:08;;;;;;;66.73;63.40;;;16.20;99.90;;;;;;5052720;28;20202;-75
2022/08/09 00:45:54;;;;;;;64.17;61.07;;;16.10;99.90;;;;;;5053143;28;20176;-75
2022/08/09 00:48:20;;;;;;;60.60;57.70;;;16.00;99.90;;;;;;5051826;28;20544;-75
2022/08/09 00:50:46;;;;;;;64.37;61.17;;;16.10;99.90;;;;;;5051310;28;20198;-75
2022/08/09 00:53:12;;;;;;;70.33;66.97;;;16.00;99.90;;;;;;5051293;28;20214;-74
2022/08/09 00:55:39;;;;;;;48.40;46.13;;;15.90;99.90;;;;;;5052634;28;20738;-74
2022/08/09 00:58:05;;;;;;;31.07;29.57;;;15.90;99.90;;;;;;5051322;28;20183;-74
2022/08/09 01:00:31;;;;;;;24.87;23.70;;;15.80;99.90;;;;;;5053276;28;20183;-73
2022/08/09 01:03:07;;;;;;;19.20;18.30;;;15.80;99.90;;;;;;5079308;28;20195;-74
2022/08/09 01:06:03;;;;;;;11.10;10.50;;;15.70;99.90;;;;;;5032694;28;20674;-75
2022/08/09 01:08:39;;;;;;;8.13;7.80;;;15.70;99.90;;;;;;5032107;28;20241;-75
2022/08/09 01:11:17;;;;;;;7.03;6.53;;;15.70;99.90;;;;;;5066278;28;20289;-75
2022/08/09 01:13:54;;;;;;;6.70;6.40;;;15.70;99.90;;;;;;5084623;28;20586;-75
2022/08/09 01:16:23;;;;;;;8.80;8.10;;;15.70;99.90;;;;;;5051352;28;20178;-74
2022/08/09 01:18:51;;;;;;;6.93;6.53;;;15.70;99.90;;;;;;5054521;28;20554;-74
2022/08/09 01:21:26;;;;;;;9.47;8.67;;;15.70;99.90;;;;;;5051529;28;20229;-74
2022/08/09 01:24:01;;;;;;;7.20;6.70;;;15.60;99.90;;;;;;5052023;28;20209;-75
2022/08/09 01:27:10;;;;;;;13.97;13.23;;;15.60;99.90;;;;;;5050873;28;20197;-75
2022/08/09 01:29:47;;;;;;;8.87;8.27;;;15.70;99.90;;;;;;4973626;28;20772;-75
2022/08/09 01:32:17;;;;;;;8.20;7.70;;;15.60;99.90;;;;;;4989678;28;20661;-73
2022/08/09 01:34:46;;;;;;;8.27;7.90;;;15.60;99.90;;;;;;5015017;28;20239;-73
2022/08/09 01:37:15;;;;;;;7.67;7.17;;;15.50;99.90;;;;;;5030095;28;20236;-73
2022/08/09 01:39:45;;;;;;;9.80;9.30;;;15.40;99.90;;;;;;5031785;28;20183;-71
2022/08/09 01:42:12;;;;;;;5.93;5.47;;;15.40;99.90;;;;;;5067561;28;20199;-74
2022/08/09 01:44:40;;;;;;;11.80;11.20;;;15.40;99.90;;;;;;5063703;28;20648;-74
2022/08/09 01:47:06;;;;;;;10.57;9.93;;;15.40;99.90;;;;;;5030960;28;21026;-73
2022/08/09 01:49:36;;;;;;;22.93;21.90;;;15.40;99.90;;;;;;5031290;28;20183;-73
2022/08/09 01:52:06;;;;;;;45.67;43.47;;;15.30;99.90;;;;;;5039972;28;20202;-72
2022/08/09 01:54:39;;;;;;;47.40;45.13;;;15.30;99.90;;;;;;5051570;28;20179;-72
2022/08/09 01:57:14;;;;;;;24.50;23.30;;;15.30;99.90;;;;;;5049684;28;20678;-72
2022/08/09 01:59:42;;;;;;;48.00;45.70;;;15.30;99.90;;;;;;5050594;28;20192;-72
2022/08/09 02:02:10;;;;;;;78.40;74.53;;;15.00;99.90;;;;;;5051327;28;20206;-72
2022/08/09 02:04:38;;;;;;;48.50;46.17;;;14.90;99.90;;;;;;5049736;28;20187;-72
2022/08/09 02:07:08;;;;;;;48.77;46.13;;;14.90;99.90;;;;;;5048910;28;20175;-72
2022/08/09 02:09:41;;;;;;;47.60;45.10;;;15.00;99.90;;;;;;5049542;28;20532;-73
2022/08/09 02:12:10;;;;;;;39.97;38.07;;;15.00;99.90;;;;;;5050881;28;20202;-73
2022/08/09 02:14:38;;;;;;;53.90;51.30;;;15.10;99.90;;;;;;5050036;28;20212;-72
2022/08/09 02:17:05;;;;;;;72.07;68.63;;;15.10;99.90;;;;;;5048742;28;20244;-73
2022/08/09 02:19:31;;;;;;;67.47;64.17;;;15.10;99.90;;;;;;5049749;28;20233;-73
2022/08/09 02:22:02;;;;;;;64.57;61.27;;;15.10;99.90;;;;;;5050848;28;20709;-73
2022/08/09 02:24:34;;;;;;;37.13;35.40;;;15.10;99.90;;;;;;5050937;28;20185;-72
2022/08/09 02:27:04;;;;;;;45.83;43.47;;;15.10;99.90;;;;;;5048705;28;20537;-73
2022/08/09 02:29:37;;;;;;;43.27;41.13;;;15.00;99.90;;;;;;5050980;28;20179;-73
2022/08/09 02:32:07;;;;;;;37.67;35.63;;;15.00;99.90;;;;;;5050703;28;20244;-73
2022/08/09 02:34:35;;;;;;;21.53;20.43;;;14.90;99.90;;;;;;5049909;28;20201;-72
2022/08/09 02:37:04;;;;;;;12.90;12.13;;;14.90;99.90;;;;;;5049722;28;20637;-71
2022/08/09 02:39:35;;;;;;;8.93;8.53;;;14.90;99.90;;;;;;5050897;28;20190;-73
2022/08/09 02:42:05;;;;;;;10.67;9.63;;;14.80;99.90;;;;;;5050648;28;20218;-72
2022/08/09 02:44:40;;;;;;;8.60;8.13;;;14.80;99.90;;;;;;5049551;28;20182;-73
2022/08/09 02:47:09;;;;;;;7.57;7.27;;;14.80;99.90;;;;;;5049501;28;20186;-74
2022/08/09 02:49:40;;;;;;;6.30;6.00;;;14.80;99.90;;;;;;5050680;28;20174;-74
2022/08/09 02:52:12;;;;;;;6.07;5.67;;;14.70;99.90;;;;;;5050792;28;20248;-74
2022/08/09 02:54:39;;;;;;;6.40;6.00;;;14.70;99.90;;;;;;5051095;28;20280;-74
2022/08/09 02:57:06;;;;;;;6.23;5.93;;;14.70;99.90;;;;;;5050690;28;20288;-74
2022/08/09 02:59:35;;;;;;;23.60;22.40;;;14.60;99.90;;;;;;5050748;28;20189;-74
2022/08/09 03:02:03;;;;;;;183.30;172.70;;;14.40;99.90;;;;;;5051328;28;20221;-74
2022/08/09 03:04:30;;;;;;;255.63;241.80;;;14.10;99.90;;;;;;5050707;28;20198;-74
2022/08/09 03:06:59;;;;;;;136.10;128.77;;;14.10;99.90;;;;;;5081815;28;20171;-75
2022/08/09 03:09:26;;;;;;;65.93;62.30;;;14.00;99.90;;;;;;5050643;28;20182;-74
2022/08/09 03:11:53;;;;;;;71.67;67.77;;;13.90;99.90;;;;;;5050052;28;20198;-74
2022/08/09 03:14:20;;;;;;;48.27;45.57;;;13.90;99.90;;;;;;5049356;28;20178;-74
2022/08/09 03:16:47;;;;;;;41.67;39.57;;;13.90;99.90;;;;;;5048313;28;20643;-74
2022/08/09 03:19:16;;;;;;;38.50;36.40;;;14.00;99.90;;;;;;5050196;28;20279;-75
2022/08/09 03:21:44;;;;;;;21.27;20.10;;;14.00;99.90;;;;;;5049955;28;20206;-74
2022/08/09 03:24:10;;;;;;;17.77;16.97;;;14.10;99.90;;;;;;5050427;28;20189;-75
2022/08/09 03:26:37;;;;;;;37.20;35.23;;;14.20;99.90;;;;;;5050092;28;20171;-76
2022/08/09 03:29:03;;;;;;;37.27;35.47;;;14.20;99.90;;;;;;5049572;28;20282;-75
2022/08/09 03:31:29;;;;;;;54.50;51.77;;;14.20;99.90;;;;;;5048967;28;20775;-76
2022/08/09 03:33:56;;;;;;;47.83;45.40;;;14.30;99.90;;;;;;5049284;28;20187;-75
2022/08/09 03:36:23;;;;;;;101.13;95.73;;;14.30;99.90;;;;;;5049566;28;20207;-77
2022/08/09 03:38:50;;;;;;;127.40;120.70;;;14.30;99.90;;;;;;5050662;28;20284;-77
2022/08/09 03:41:15;;;;;;;154.93;147.07;;;14.20;99.90;;;;;;5055086;28;20289;-77
2022/08/09 03:43:42;;;;;;;111.03;105.27;;;14.20;99.90;;;;;;5058328;28;20193;-76
2022/08/09 03:46:08;;;;;;;144.00;136.47;;;14.30;99.90;;;;;;5058583;28;20186;-75
2022/08/09 03:48:37;;;;;;;67.27;63.70;;;14.20;99.90;;;;;;5053221;28;20232;-76
2022/08/09 03:51:07;;;;;;;42.37;40.27;;;14.20;99.90;;;;;;5048859;28;20191;-73
2022/08/09 03:53:34;;;;;;;79.17;75.20;;;14.30;99.90;;;;;;5067590;28;20187;-74
2022/08/09 03:56:01;;;;;;;71.23;67.63;;;14.20;99.90;;;;;;5065815;28;20192;-72
2022/08/09 03:58:27;;;;;;;71.03;67.47;;;14.20;99.90;;;;;;5045367;28;20537;-73
2022/08/09 04:00:54;;;;;;;70.87;67.10;;;14.10;99.90;;;;;;5053491;28;20679;-73
2022/08/09 04:03:20;;;;;;;60.33;57.33;;;14.00;99.90;;;;;;5053413;28;20217;-77
2022/08/09 04:05:46;;;;;;;53.67;51.03;;;14.10;99.90;;;;;;5052950;28;20185;-74
2022/08/09 04:08:12;;;;;;;55.87;53.03;;;14.00;99.90;;;;;;5051709;28;20178;-74
2022/08/09 04:10:38;;;;;;;59.73;56.33;;;14.00;99.90;;;;;;5085819;28;20171;-73
2022/08/09 04:13:10;;;;;;;62.20;59.00;;;14.00;99.90;;;;;;5052375;28;20182;-73
2022/08/09 04:15:37;;;;;;;39.80;37.50;;;13.90;99.90;;;;;;5053399;28;20236;-73
2022/08/09 04:18:05;;;;;;;23.50;21.97;;;13.80;99.90;;;;;;5051922;28;20685;-72
2022/08/09 04:20:31;;;;;;;19.70;18.60;;;13.80;99.90;;;;;;5052533;28;20191;-73
2022/08/09 04:22:58;;;;;;;18.40;17.40;;;13.80;99.90;;;;;;5085184;28;20581;-73
2022/08/09 04:25:24;;;;;;;19.20;17.77;;;13.90;99.90;;;;;;5053166;28;20182;-73
2022/08/09 04:27:50;;;;;;;21.53;20.27;;;13.80;99.90;;;;;;5051329;28;20179;-74
2022/08/09 04:30:19;;;;;;;21.23;20.07;;;13.80;99.90;;;;;;5053719;28;20182;-73
2022/08/09 04:32:45;;;;;;;22.67;21.50;;;13.80;99.90;;;;;;5084604;28;20245;-73
2022/08/09 04:35:12;;;;;;;23.07;21.63;;;13.90;99.90;;;;;;5084951;28;20186;-70
2022/08/09 04:37:39;;;;;;;33.37;31.63;;;13.90;99.90;;;;;;5052012;28;20190;-72
2022/08/09 04:40:06;;;;;;;42.90;40.67;;;13.90;99.90;;;;;;5051753;28;20183;-75
2022/08/09 04:42:33;;;;;;;46.43;44.03;;;14.00;99.90;;;;;;5084726;28;20206;-72
2022/08/09 04:44:59;;;;;;;24.53;23.20;;;14.00;99.90;;;;;;5084658;28;20186;-73
2022/08/09 04:47:27;;;;;;;27.53;26.03;;;14.00;99.90;;;;;;5083795;28;20537;-73
2022/08/09 04:49:54;;;;;;;42.90;40.70;;;14.10;99.90;;;;;;5052601;28;20285;-73
2022/08/09 04:52:22;;;;;;;50.53;47.93;;;14.20;99.90;;;;;;5049885;28;20257;-75
2022/08/09 04:54:50;;;;;;;51.37;48.57;;;14.20;99.90;;;;;;5084753;28;20186;-73
2022/08/09 04:57:16;;;;;;;39.23;37.00;;;14.30;99.90;;;;;;5051584;28;20200;-74
2022/08/09 04:59:42;;;;;;;33.40;31.63;;;14.30;99.90;;;;;;5050526;28;20190;-73
2022/08/09 05:02:08;;;;;;;152.67;145.30;;;14.50;99.90;;;;;;5052016;28;20217;-72
2022/08/09 05:04:35;;;;;;;214.03;203.53;;;14.70;99.90;;;;;;5052453;28;20182;-72
2022/08/09 05:07:00;;;;;;;74.40;70.73;;;14.80;99.90;;;;;;5049608;28;20831;-73
2022/08/09 05:09:29;;;;;;;70.33;66.67;;;14.90;99.90;;;;;;5052181;28;20269;-71
2022/08/09 05:11:55;;;;;;;25.57;24.27;;;15.10;99.90;;;;;;5051996;28;20730;-71
2022/08/09 05:14:22;;;;;;;58.63;55.57;;;15.40;99.90;;;;;;5051485;28;20621;-71
2022/08/09 05:16:48;;;;;;;107.43;102.27;;;15.60;99.90;;;;;;5051339;28;20236;-71
2022/08/09 05:19:14;;;;;;;35.37;33.43;;;15.90;99.90;;;;;;5051958;28;20202;-71
2022/08/09 05:21:42;;;;;;;18.77;17.60;;;16.40;99.90;;;;;;5051505;28;20213;-71
2022/08/09 05:24:08;;;;;;;141.03;133.97;;;17.00;99.90;;;;;;5052129;28;20265;-71
2022/08/09 05:26:36;;;;;;;52.07;49.57;;;17.50;99.90;;;;;;5051398;28;20171;-72
2022/08/09 05:29:02;;;;;;;8.97;8.10;;;18.10;99.90;;;;;;5051287;28;20177;-71
2022/08/09 05:31:28;;;;;;;7.33;6.93;;;18.70;99.90;;;;;;5054186;28;20424;-76
2022/08/09 05:33:53;;;;;;;9.55;8.90;;;19.10;99.90;;;;;;5064170;28;20361;-78
2022/08/09 05:36:19;;;;;;;7.85;7.15;;;19.40;99.90;;;;;;5066078;28;20212;-78
2022/08/09 05:38:45;;;;;;;25.02;23.63;;;20.00;99.90;;;;;;5065514;28;20198;-81
2022/08/09 05:41:11;;;;;;;32.65;30.95;;;20.30;99.90;;;;;;5053445;28;20195;-81
2022/08/09 05:43:37;;;;;;;28.92;27.30;;;20.40;99.90;;;;;;5051857;28;20175;-81
2022/08/09 05:46:02;;;;;;;10.18;9.68;;;21.10;99.90;;;;;;5055253;28;20265;-80
2022/08/09 05:48:29;;;;;;;12.27;5.43;;;21.40;99.90;;;;;;5054651;28;20179;-81
2022/08/09 05:50:55;;;;;;;12.60;11.75;;;21.70;99.90;;;;;;5055418;28;20190;-81
2022/08/09 05:53:21;;;;;;;16.20;15.45;;;22.00;99.90;;;;;;5054112;28;20186;-81
2022/08/09 05:55:47;;;;;;;14.30;13.60;;;22.30;99.90;;;;;;5054812;28;20605;-81
2022/08/09 05:58:13;;;;;;;18.42;17.52;;;22.30;99.40;;;;;;5053252;28;20193;-81
2022/08/09 06:00:39;;;;;;;12.02;11.35;;;22.20;98.80;;;;;;5053490;28;20178;-78
2022/08/09 06:03:05;;;;;;;7.50;7.00;;;22.60;98.10;;;;;;5053213;28;20257;-80
2022/08/09 06:05:33;;;;;;;5.68;5.47;;;23.10;96.70;;;;;;5055973;28;20178;-81
2022/08/09 06:07:59;;;;;;;6.43;5.97;;;23.30;96.20;;;;;;5057311;28;20190;-81
2022/08/09 06:10:36;;;;;;;9.18;8.27;;;23.60;95.30;;;;;;5054565;28;20178;-78
2022/08/09 06:13:12;;;;;;;11.95;11.05;;;23.70;94.90;;;;;;5056587;28;20201;-78
2022/08/09 06:15:39;;;;;;;10.15;9.63;;;23.80;94.00;;;;;;5055787;28;20216;-78
2022/08/09 06:18:05;;;;;;;10.93;10.38;;;24.00;93.30;;;;;;5052631;28;20174;-81
2022/08/09 06:20:31;;;;;;;14.98;14.27;;;24.40;93.20;;;;;;5056372;28;20647;-80
2022/08/09 06:22:58;;;;;;;25.50;24.20;;;24.70;91.80;;;;;;5053619;28;20229;-80
2022/08/09 06:25:24;;;;;;;21.42;19.95;;;24.80;91.30;;;;;;5055489;28;20188;-80
2022/08/09 06:27:49;;;;;;;22.38;21.10;;;24.70;91.20;;;;;;5060491;28;20193;-79
2022/08/09 06:30:16;;;;;;;17.20;16.33;;;24.90;90.70;;;;;;5057264;28;20265;-81
2022/08/09 06:32:43;;;;;;;22.45;21.20;;;25.20;89.50;;;;;;5054336;28;20214;-81
2022/08/09 06:35:10;;;;;;;28.77;27.23;;;25.40;88.10;;;;;;5054584;28;20341;-81
2022/08/09 06:37:36;;;;;;;31.27;29.38;;;25.50;87.80;;;;;;5051790;28;20188;-80
2022/08/09 06:40:04;;;;;;;22.40;21.27;;;25.60;87.40;;;;;;5053473;28;20246;-80
2022/08/09 06:42:30;;;;;;;20.25;19.05;;;25.80;86.00;;;;;;5054078;28;20213;-80
2022/08/09 06:44:57;;;;;;;14.23;13.48;;;26.10;85.00;;;;;;5053333;28;20174;-79
2022/08/09 06:47:22;;;;;;;19.90;18.83;;;26.50;82.70;;;;;;5052740;28;20622;-80
2022/08/09 06:49:49;;;;;;;13.15;12.35;;;26.70;83.10;;;;;;5053490;28;20199;-80
2022/08/09 06:52:15;;;;;;;10.77;10.27;;;26.70;80.80;;;;;;5053397;28;20727;-80
2022/08/09 06:54:40;;;;;;;10.70;9.02;;;26.80;79.90;;;;;;5053544;28;20239;-80
2022/08/09 06:57:06;;;;;;;11.75;11.02;;;26.70;80.00;;;;;;5053226;28;20186;-80
2022/08/09 06:59:32;;;;;;;8.68;8.27;;;27.20;80.80;;;;;;5053629;28;20196;-79
2022/08/09 07:01:58;;;;;;;8.45;7.75;;;27.20;78.80;;;;;;5052814;28;20287;-81
2022/08/09 07:04:23;;;;;;;10.43;9.68;;;27.60;76.80;;;;;;5053020;28;20658;-80
2022/08/09 07:06:49;;;;;;;8.60;7.93;;;27.60;76.00;;;;;;5053024;28;20661;-81
2022/08/09 07:09:15;;;;;;;7.47;7.10;;;27.30;75.70;;;;;;5053911;28;20190;-80
2022/08/09 07:11:41;;;;;;;8.50;8.00;;;27.40;76.00;;;;;;5064552;28;20198;-77
2022/08/09 07:14:07;;;;;;;5.85;5.43;;;27.90;77.20;;;;;;5067707;28;20189;-78
2022/08/09 07:16:33;;;;;;;8.93;8.32;;;28.30;74.00;;;;;;5063196;28;20197;-78
2022/08/09 07:18:59;;;;;;;15.55;14.55;;;28.50;73.90;;;;;;5057952;28;20185;-81
2022/08/09 07:21:24;;;;;;;19.48;18.45;;;28.90;71.20;;;;;;5057195;28;20198;-79
2022/08/09 07:23:50;;;;;;;27.67;25.98;;;29.10;69.60;;;;;;5060200;28;20178;-81
2022/08/09 07:26:16;;;;;;;22.00;20.85;;;29.30;68.50;;;;;;5057558;28;20193;-80
2022/08/09 07:28:42;;;;;;;14.00;13.20;;;29.50;68.10;;;;;;5062214;28;20183;-80
2022/08/09 07:31:07;;;;;;;7.38;6.95;;;29.60;66.90;;;;;;5058990;28;20305;-80
2022/08/09 07:33:33;;;;;;;15.70;15.00;;;29.20;65.30;;;;;;5076444;22;20234;-77
2022/08/09 07:35:59;;;;;;;15.95;15.15;;;28.10;68.20;;;;;;5054463;28;20284;-76
2022/08/09 07:38:25;;;;;;;10.88;10.30;;;27.60;70.60;;;;;;5053651;28;20604;-77
2022/08/09 07:40:53;;;;;;;6.13;5.82;;;27.50;70.10;;;;;;5070018;28;20643;-77
2022/08/09 07:43:19;;;;;;;8.68;8.27;;;27.70;73.00;;;;;;5082554;28;20214;-77
2022/08/09 07:45:45;;;;;;;9.10;8.70;;;28.10;69.00;;;;;;5053118;28;20636;-77
2022/08/09 07:48:11;;;;;;;12.63;11.85;;;28.30;68.60;;;;;;5071017;28;20253;-76
2022/08/09 07:50:39;;;;;;;20.85;19.60;;;28.60;67.90;;;;;;5061101;28;20270;-79
2022/08/09 07:53:06;;;;;;;22.67;21.55;;;29.30;66.50;;;;;;5087062;28;20633;-80
2022/08/09 07:55:33;;;;;;;18.15;17.10;;;29.30;65.30;;;;;;5056441;28;20224;-80
2022/08/09 07:57:59;;;;;;;16.88;15.98;;;28.60;65.40;;;;;;5059114;28;20187;-79
2022/08/09 08:00:26;;;;;;;11.88;11.25;;;27.70;67.40;;;;;;5059305;28;20583;-79
2022/08/09 08:02:52;;;;;;;11.02;10.43;;;27.80;67.90;;;;;;5091205;28;20608;-80
2022/08/09 08:05:18;;;;;;;7.18;6.78;;;27.60;67.40;;;;;;5056483;28;20269;-81
2022/08/09 08:07:44;;;;;;;8.15;7.72;;;27.60;68.00;;;;;;5056267;28;20202;-78
2022/08/09 08:10:09;;;;;;;12.07;11.38;;;27.90;67.00;;;;;;5058321;28;20224;-79
2022/08/09 08:12:37;;;;;;;22.60;21.52;;;28.40;66.00;;;;;;5059170;28;20255;-80
2022/08/09 08:15:04;;;;;;;20.58;19.35;;;28.70;64.50;;;;;;5059848;28;20746;-79
2022/08/09 08:17:30;;;;;;;23.02;21.88;;;28.80;65.10;;;;;;5091924;28;20183;-78
2022/08/09 08:19:56;;;;;;;21.95;20.92;;;28.80;64.40;;;;;;5060617;28;20475;-79
2022/08/09 08:22:22;;;;;;;11.80;11.25;;;29.20;64.80;;;;;;5059801;28;20219;-79
2022/08/09 08:24:50;;;;;;;9.00;8.32;;;29.60;62.30;;;;;;5059379;28;20174;-79
2022/08/09 08:27:16;;;;;;;10.88;10.38;;;29.20;61.80;;;;;;5064492;28;20171;-79
2022/08/09 08:29:41;;;;;;;10.90;10.15;;;29.20;62.60;;;;;;5065479;28;20709;-79
2022/08/09 08:32:07;;;;;;;14.80;13.90;;;28.70;62.90;;;;;;5064404;28;20264;-83
2022/08/09 08:34:33;;;;;;;15.70;14.32;;;28.50;62.90;;;;;;5091890;28;20186;-83
2022/08/09 08:36:59;;;;;;;18.45;17.63;;;28.60;63.00;;;;;;5059844;28;20185;-81
2022/08/09 08:39:25;;;;;;;16.17;15.15;;;29.10;62.40;;;;;;5059156;28;20189;-80
2022/08/09 08:41:50;;;;;;;10.63;10.13;;;29.40;61.30;;;;;;5058731;28;20222;-80
2022/08/09 08:44:18;;;;;;;7.60;7.20;;;29.50;61.00;;;;;;5058716;28;20182;-79
2022/08/09 08:46:45;;;;;;;7.57;6.95;;;29.60;60.60;;;;;;5059292;28;20186;-81
2022/08/09 08:49:12;;;;;;;7.43;7.03;;;29.50;61.30;;;;;;5058049;28;20199;-82
2022/08/09 08:51:39;;;;;;;9.65;8.93;;;29.40;60.20;;;;;;5058180;28;20245;-82
2022/08/09 08:54:07;;;;;;;10.75;10.15;;;29.10;61.90;;;;;;5056719;28;20182;-80
2022/08/09 08:56:38;;;;;;;12.25;11.63;;;29.20;61.60;;;;;;5091230;28;20205;-81
2022/08/09 08:59:06;;;;;;;7.57;6.97;;;29.50;61.10;;;;;;5056095;28;20186;-80
2022/08/09 09:01:37;;;;;;;7.18;6.70;;;29.60;59.80;;;;;;5058479;28;20224;-80
2022/08/09 09:04:03;;;;;;;8.52;8.13;;;30.00;59.90;;;;;;5058382;28;20174;-78
2022/08/09 09:06:36;;;;;;;9.50;8.90;;;30.10;57.30;;;;;;5055536;28;20236;-82
2022/08/09 09:09:04;;;;;;;6.35;5.68;;;30.10;58.10;;;;;;5055818;28;20186;-79
2022/08/09 09:11:32;;;;;;;7.40;7.10;;;30.50;57.00;;;;;;5058452;28;20175;-78
2022/08/09 09:14:00;;;;;;;5.55;5.35;;;30.00;55.40;;;;;;5059477;28;20196;-82
2022/08/09 09:16:31;;;;;;;6.57;6.07;;;29.60;56.80;;;;;;5062256;28;20630;-79
2022/08/09 09:19:06;;;;;;;7.30;6.90;;;29.80;56.30;;;;;;5056905;28;20212;-80
2022/08/09 09:21:32;;;;;;;6.75;6.40;;;30.10;56.10;;;;;;5056965;28;20247;-78
2022/08/09 09:24:03;;;;;;;6.70;6.25;;;30.10;55.00;;;;;;5056597;28;20174;-82
2022/08/09 09:26:29;;;;;;;6.35;6.00;;;30.00;55.40;;;;;;5055902;28;20185;-82
2022/08/09 09:28:55;;;;;;;6.93;6.63;;;29.80;55.80;;;;;;5061190;28;20159;-80
2022/08/09 09:31:23;;;;;;;6.25;5.80;;;29.90;55.80;;;;;;5072461;28;20205;-80
2022/08/09 09:33:49;;;;;;;8.35;7.95;;;30.10;55.20;;;;;;5063734;28;20190;-83
2022/08/09 09:36:15;;;;;;;8.13;7.78;;;30.00;53.70;;;;;;5060457;28;20240;-78
2022/08/09 09:38:51;;;;;;;8.93;8.55;;;30.10;54.00;;;;;;5067213;28;20708;-77
2022/08/09 09:41:29;;;;;;;7.45;7.10;;;30.10;53.70;;;;;;5062242;28;20256;-82
2022/08/09 09:43:57;;;;;;;7.47;7.18;;;29.50;53.90;;;;;;5058532;28;20182;-82
2022/08/09 09:46:34;;;;;;;7.85;7.40;;;29.70;55.20;;;;;;5059650;28;20179;-81
2022/08/09 09:49:19;;;;;;;7.63;7.25;;;30.20;54.40;;;;;;5057173;28;20561;-78
2022/08/09 09:51:45;;;;;;;8.80;8.20;;;30.10;54.90;;;;;;5058061;28;20738;-81
2022/08/09 09:54:20;;;;;;;23.65;22.40;;;30.40;54.50;;;;;;5058185;28;20205;-82
2022/08/09 09:56:48;;;;;;;27.08;25.52;;;30.40;53.10;;;;;;5059129;28;20186;-80
2022/08/09 09:59:31;;;;;;;95.03;90.53;;;30.60;53.70;;;;;;5057921;28;20678;-77
2022/08/09 10:01:59;;;;;;;138.80;132.23;;;31.00;52.40;;;;;;5059919;28;20619;-78
2022/08/09 10:04:25;;;;;;;190.38;181.25;;;31.30;51.50;;;;;;5058069;28;20265;-82
2022/08/09 10:06:50;;;;;;;149.63;142.40;;;31.50;49.30;;;;;;5057805;28;20178;-82
2022/08/09 10:09:16;;;;;;;170.32;161.70;;;31.20;48.70;;;;;;5055617;28;20201;-78
2022/08/09 10:11:42;;;;;;;162.98;154.85;;;31.30;48.50;;;;;;5057170;28;20193;-79
2022/08/09 10:14:29;;;;;;;164.98;156.93;;;30.90;48.70;;;;;;5057739;28;20315;-80
2022/08/09 10:16:55;;;;;;;159.73;152.10;;;30.70;48.60;;;;;;5066844;28;20236;-81
2022/08/09 10:19:33;;;;;;;157.60;149.88;;;30.60;48.10;;;;;;5062956;28;20232;-81
2022/08/09 10:22:00;;;;;;;150.50;143.40;;;30.70;47.70;;;;;;5060371;28;20221;-82
2022/08/09 10:24:27;;;;;;;156.75;149.23;;;30.60;48.00;;;;;;5058662;28;20181;-81
2022/08/09 10:26:55;;;;;;;157.57;150.15;;;30.60;47.70;;;;;;5056859;28;20215;-82
2022/08/09 10:29:22;;;;;;;153.98;146.52;;;30.60;48.70;;;;;;5091407;28;20312;-77
2022/08/09 10:31:48;;;;;;;152.40;145.05;;;30.90;47.70;;;;;;5059395;28;20588;-84
2022/08/09 10:34:15;;;;;;;141.77;135.05;;;31.20;47.40;;;;;;5057376;28;20712;-76
2022/08/09 10:36:42;;;;;;;140.73;134.02;;;31.80;46.90;;;;;;5058092;28;20178;-79
2022/08/09 10:39:08;;;;;;;178.52;169.90;;;31.90;47.40;;;;;;5055081;28;20225;-79
2022/08/09 10:41:35;;;;;;;140.52;133.70;;;32.50;46.40;;;;;;5056538;28;20587;-81
2022/08/09 10:44:02;;;;;;;146.57;139.10;;;32.30;46.30;;;;;;5055183;28;20178;-81
2022/08/09 10:46:40;;;;;;;161.77;153.73;;;32.60;45.80;;;;;;5054664;28;20185;-81
2022/08/09 10:49:23;;;;;;;131.93;125.45;;;33.00;46.80;;;;;;5089639;28;20724;-81
2022/08/09 10:51:57;;;;;;;113.55;108.07;;;33.80;44.30;;;;;;5063705;28;20658;-82
2022/08/09 10:54:24;;;;;;;125.03;118.95;;;33.40;44.20;;;;;;5095801;28;20191;-80
2022/08/09 10:57:22;;;;;;;118.18;112.63;;;33.00;44.80;;;;;;5062297;28;20182;-79
2022/08/09 10:59:48;;;;;;;118.68;113.00;;;32.80;44.60;;;;;;5048806;28;20190;-80
2022/08/09 11:02:35;;;;;;;131.70;125.30;;;32.60;44.90;;;;;;5102208;28;20209;-85
2022/08/09 11:05:16;;;;;;;135.32;128.90;;;32.80;45.20;;;;;;5065664;28;20182;-85
2022/08/09 11:07:42;;;;;;;100.28;95.53;;;33.60;44.70;;;;;;5065382;28;20200;-79
2022/08/09 11:10:08;;;;;;;116.63;111.15;;;33.20;44.10;;;;;;5070989;28;20178;-83
2022/08/09 11:12:34;;;;;;;99.65;94.80;;;33.00;44.80;;;;;;5073337;28;20260;-82
2022/08/09 11:15:24;;;;;;;103.25;98.18;;;33.70;43.60;;;;;;5062295;28;20183;-80
2022/08/09 11:17:52;;;;;;;98.05;92.93;;;33.90;43.90;;;;;;5076710;28;20178;-78
2022/08/09 11:20:37;;;;;;;84.75;80.38;;;33.80;43.70;;;;;;5096059;28;20183;-81
2022/08/09 11:23:03;;;;;;;90.95;86.57;;;33.50;43.70;;;;;;5064765;28;20214;-79
2022/08/09 11:25:30;;;;;;;83.43;79.50;;;34.00;42.70;;;;;;5067372;28;20262;-80
2022/08/09 11:27:59;;;;;;;84.03;79.88;;;33.90;43.00;;;;;;5095264;28;20178;-81
2022/08/09 11:30:31;;;;;;;74.32;70.60;;;34.80;42.80;;;;;;5064451;28;20265;-81
2022/08/09 11:33:24;;;;;;;72.70;69.25;;;34.50;42.60;;;;;;5096609;28;20233;-79
2022/08/09 11:36:00;;;;;;;70.82;67.20;;;34.60;43.30;;;;;;5059921;28;20186;-80
2022/08/09 11:38:36;;;;;;;72.45;68.90;;;34.30;42.30;;;;;;5089111;28;20186;-81
2022/08/09 11:41:12;;;;;;;85.85;81.82;;;34.50;42.20;;;;;;5091356;28;20216;-85
2022/08/09 11:43:45;;;;;;;47.25;44.83;;;34.90;42.00;;;;;;5091991;28;20240;-80
2022/08/09 11:46:11;;;;;;;42.15;39.92;;;35.60;40.30;;;;;;5062496;28;20231;-81
2022/08/09 11:49:06;;;;;;;31.70;30.13;;;36.00;40.40;;;;;;5062593;28;20183;-79
2022/08/09 11:51:59;;;;;;;52.17;49.40;;;35.40;40.40;;;;;;5035061;28;20197;-79
2022/08/09 11:54:26;;;;;;;75.22;71.45;;;34.90;41.40;;;;;;5076971;28;20190;-80
2022/08/09 11:56:51;;;;;;;55.63;52.95;;;34.60;41.60;;;;;;5059152;28;20633;-81
2022/08/09 11:59:28;;;;;;;57.35;54.47;;;34.80;41.30;;;;;;5059413;28;20408;-79
2022/08/09 12:01:54;;;;;;;38.85;36.70;;;35.00;40.30;;;;;;5063389;28;20209;-80
2022/08/09 12:04:23;;;;;;;37.83;35.95;;;34.80;40.50;;;;;;5063908;28;20178;-85
2022/08/09 12:06:57;;;;;;;12.65;11.95;;;34.90;40.30;;;;;;5061873;28;20186;-80
2022/08/09 12:09:29;;;;;;;13.45;12.75;;;35.30;38.20;;;;;;5060269;28;20217;-82
2022/08/09 12:12:04;;;;;;;11.65;11.00;;;35.40;38.10;;;;;;5059741;28;20300;-83
2022/08/09 12:14:32;;;;;;;26.92;25.55;;;35.30;37.20;;;;;;5061464;28;20189;-82
2022/08/09 12:16:58;;;;;;;29.73;28.02;;;34.60;37.90;;;;;;5062625;28;20179;-83
2022/08/09 12:19:29;;;;;;;22.58;21.42;;;34.40;38.40;;;;;;5068371;28;20181;-81
2022/08/09 12:22:00;;;;;;;17.80;17.02;;;34.90;37.70;;;;;;5059924;28;20758;-82
2022/08/09 12:24:26;;;;;;;33.38;31.85;;;34.80;37.30;;;;;;5061331;28;20193;-81
2022/08/09 12:26:58;;;;;;;12.32;11.65;;;34.60;38.10;;;;;;5063349;28;20639;-79
2022/08/09 12:29:27;;;;;;;11.98;11.27;;;35.40;36.40;;;;;;5070088;28;20186;-81
2022/08/09 12:32:09;;;;;;;13.35;12.73;;;35.60;37.10;;;;;;5062236;28;20210;-80
2022/08/09 12:34:41;;;;;;;18.42;17.48;;;34.80;36.90;;;;;;5064088;28;20178;-81
2022/08/09 12:37:08;;;;;;;24.92;23.63;;;34.40;37.30;;;;;;5058037;28;20190;-84